createdAt,value
2023-02-18T00:00:35.978Z,7.85
2023-02-18T00:03:03.189Z,8.00
2023-02-18T00:05:31.133Z,8.50
2023-02-18T00:07:58.344Z,7.88
2023-02-18T00:10:25.656Z,8.15
2023-02-18T00:12:52.934Z,8.18
2023-02-18T00:15:20.317Z,8.68
2023-02-18T00:17:47.734Z,8.15
2023-02-18T00:20:15.088Z,8.40
2023-02-18T00:22:42.351Z,8.43
2023-02-18T00:25:09.605Z,8.88
2023-02-18T00:27:36.935Z,8.63
2023-02-18T00:30:05.262Z,8.90
2023-02-18T00:32:32.800Z,9.07
2023-02-18T00:35:00.105Z,8.40
2023-02-18T00:37:27.470Z,7.95
2023-02-18T00:39:55.063Z,8.27
2023-02-18T00:42:22.320Z,8.32
2023-02-18T00:44:49.857Z,9.10
2023-02-18T00:47:17.130Z,8.93
2023-02-18T00:49:44.372Z,8.43
2023-02-18T00:52:11.768Z,8.52
2023-02-18T00:54:39.028Z,8.25
2023-02-18T00:57:06.354Z,8.63
2023-02-18T00:59:33.597Z,8.95
2023-02-18T01:02:00.922Z,8.60
2023-02-18T01:04:28.282Z,8.15
2023-02-18T01:06:55.606Z,9.02
2023-02-18T01:09:25.897Z,8.95
2023-02-18T01:11:53.290Z,8.10
2023-02-18T01:14:20.463Z,9.48
2023-02-18T01:16:48.659Z,9.30
2023-02-18T01:19:15.796Z,8.48
2023-02-18T01:21:43.230Z,9.70
2023-02-18T01:24:10.733Z,9.75
2023-02-18T01:26:38.198Z,8.88
2023-02-18T01:29:05.398Z,8.93
2023-02-18T01:31:33.121Z,8.63
2023-02-18T01:34:00.303Z,8.52
2023-02-18T01:36:27.642Z,8.80
2023-02-18T01:38:55.068Z,8.25
2023-02-18T01:41:22.595Z,8.43
2023-02-18T01:43:49.793Z,8.63
2023-02-18T01:46:22.324Z,8.80
2023-02-18T01:48:56.382Z,8.85
2023-02-18T01:51:35.969Z,8.57
2023-02-18T01:54:06.924Z,6.95
2023-02-18T01:56:57.381Z,7.30
2023-02-18T01:59:28.562Z,6.38
2023-02-18T02:01:56.979Z,5.70
2023-02-18T02:04:24.602Z,5.97
2023-02-18T02:06:52.107Z,6.05
2023-02-18T02:09:21.484Z,5.82
2023-02-18T02:12:12.156Z,5.45
2023-02-18T02:14:45.506Z,6.00
2023-02-18T02:17:37.076Z,5.20
2023-02-18T02:20:49.384Z,4.97
2023-02-18T02:23:54.222Z,5.00
2023-02-18T02:26:52.475Z,5.75
2023-02-18T02:29:45.351Z,5.60
2023-02-18T02:32:31.184Z,5.85
2023-02-18T02:35:07.337Z,6.30
2023-02-18T02:37:53.437Z,6.60
2023-02-18T02:40:46.588Z,6.68
2023-02-18T02:43:24.811Z,6.57
2023-02-18T02:46:24.642Z,6.75
2023-02-18T02:49:04.181Z,6.82
2023-02-18T02:51:59.341Z,6.63
2023-02-18T02:54:29.433Z,6.88
2023-02-18T02:57:28.710Z,6.57
2023-02-18T03:00:00.736Z,6.05
2023-02-18T03:02:48.778Z,5.65
2023-02-18T03:05:37.775Z,6.03
2023-02-18T03:08:39.857Z,5.88
2023-02-18T03:11:09.859Z,6.28
2023-02-18T03:13:57.176Z,5.88
2023-02-18T03:16:28.973Z,6.25
2023-02-18T03:19:37.432Z,6.75
2023-02-18T03:22:11.770Z,7.10
2023-02-18T03:24:44.774Z,6.72
2023-02-18T03:27:21.708Z,6.43
2023-02-18T03:29:54.684Z,6.10
2023-02-18T03:32:24.010Z,5.40
2023-02-18T03:34:58.006Z,4.93
2023-02-18T03:37:25.278Z,5.22
2023-02-18T03:39:56.855Z,4.57
2023-02-18T03:42:30.718Z,4.30
2023-02-18T03:44:59.684Z,4.82
2023-02-18T03:47:27.262Z,4.45
2023-02-18T03:49:54.345Z,4.22
2023-02-18T03:52:21.710Z,4.32
2023-02-18T03:54:49.010Z,4.60
2023-02-18T03:57:19.500Z,4.25
2023-02-18T03:59:46.760Z,3.78
2023-02-18T04:02:14.158Z,4.57
2023-02-18T04:04:41.606Z,4.20
2023-02-18T04:07:09.129Z,4.10
2023-02-18T04:09:36.332Z,4.47
2023-02-18T04:12:03.583Z,4.85
2023-02-18T04:14:31.089Z,5.00
2023-02-18T04:16:58.316Z,5.15
2023-02-18T04:19:25.739Z,4.75
2023-02-18T04:21:52.907Z,4.63
2023-02-18T04:24:20.263Z,4.65
2023-02-18T04:26:47.322Z,4.72
2023-02-18T04:29:14.509Z,5.10
2023-02-18T04:31:41.880Z,4.93
2023-02-18T04:34:09.036Z,5.35
2023-02-18T04:36:36.032Z,4.40
2023-02-18T04:39:03.403Z,4.47
2023-02-18T04:41:30.828Z,4.45
2023-02-18T04:43:59.942Z,3.65
2023-02-18T04:46:27.222Z,3.80
2023-02-18T04:48:54.502Z,2.60
2023-02-18T04:51:22.028Z,2.85
2023-02-18T04:53:49.304Z,2.75
2023-02-18T04:56:16.520Z,2.40
2023-02-18T04:58:43.609Z,1.83
2023-02-18T05:01:11.194Z,1.77
2023-02-18T05:03:38.357Z,1.80
2023-02-18T05:06:06.459Z,1.17
2023-02-18T05:08:34.217Z,1.05
2023-02-18T05:11:05.212Z,0.93
2023-02-18T05:13:32.462Z,0.82
2023-02-18T05:15:59.754Z,0.73
2023-02-18T05:18:26.958Z,0.90
2023-02-18T05:20:54.148Z,0.80
2023-02-18T05:23:21.592Z,0.80
2023-02-18T05:25:48.751Z,0.77
2023-02-18T05:28:16.062Z,0.68
2023-02-18T05:30:43.455Z,0.93
2023-02-18T05:33:10.779Z,1.08
2023-02-18T05:35:38.025Z,1.00
2023-02-18T05:38:05.337Z,1.08
2023-02-18T05:40:34.133Z,0.90
2023-02-18T05:43:01.403Z,0.90
2023-02-18T05:45:28.623Z,1.00
2023-02-18T05:47:56.035Z,0.90
2023-02-18T05:50:23.601Z,0.80
2023-02-18T05:52:50.749Z,0.98
2023-02-18T05:55:18.117Z,1.10
2023-02-18T05:57:45.353Z,0.88
2023-02-18T06:00:13.021Z,0.70
2023-02-18T06:02:40.516Z,0.63
2023-02-18T06:05:08.398Z,1.00
2023-02-18T06:07:37.585Z,0.75
2023-02-18T06:10:05.848Z,0.93
2023-02-18T06:12:33.257Z,1.08
2023-02-18T06:15:00.679Z,1.00
2023-02-18T06:17:28.069Z,1.25
2023-02-18T06:19:55.215Z,1.10
2023-02-18T06:22:23.174Z,0.95
2023-02-18T06:24:50.226Z,1.05
2023-02-18T06:27:17.396Z,1.00
2023-02-18T06:29:44.784Z,0.95
2023-02-18T06:32:13.158Z,1.23
2023-02-18T06:34:40.563Z,1.40
2023-02-18T06:37:07.875Z,1.52
2023-02-18T06:39:34.981Z,1.27
2023-02-18T06:42:02.336Z,1.58
2023-02-18T06:44:29.632Z,1.42
2023-02-18T06:46:57.725Z,1.80
2023-02-18T06:49:24.895Z,1.80
2023-02-18T06:51:52.189Z,1.80
2023-02-18T06:54:19.371Z,2.05
2023-02-18T06:56:46.620Z,1.98
2023-02-18T06:59:14.113Z,2.25
2023-02-18T07:01:41.356Z,1.80
2023-02-18T07:04:08.590Z,1.88
2023-02-18T07:06:36.017Z,1.50
2023-02-18T07:09:03.501Z,1.30
2023-02-18T07:11:31.813Z,1.30
2023-02-18T07:13:59.233Z,1.00
2023-02-18T07:16:26.467Z,0.80
2023-02-18T07:18:53.815Z,1.00
2023-02-18T07:21:20.948Z,0.70
2023-02-18T07:23:48.178Z,0.70
2023-02-18T07:26:16.034Z,0.88
2023-02-18T07:28:43.337Z,0.95
2023-02-18T07:31:11.441Z,0.60
2023-02-18T07:33:39.304Z,0.80
2023-02-18T07:36:10.099Z,0.80
2023-02-18T07:38:37.989Z,0.55
2023-02-18T07:41:05.547Z,0.80
2023-02-18T07:43:32.920Z,0.70
2023-02-18T07:46:00.336Z,0.60
2023-02-18T07:48:27.726Z,0.90
2023-02-18T07:50:57.823Z,0.73
2023-02-18T07:53:25.023Z,0.80
2023-02-18T07:55:52.434Z,0.88
2023-02-18T07:58:22.774Z,0.70
2023-02-18T08:00:50.843Z,0.75
2023-02-18T08:03:19.061Z,0.63
2023-02-18T08:05:48.511Z,0.57
2023-02-18T08:08:20.838Z,0.57
2023-02-18T08:10:48.852Z,0.70
2023-02-18T08:13:16.345Z,0.73
2023-02-18T08:15:44.067Z,0.77
2023-02-18T08:18:19.897Z,0.80
2023-02-18T08:20:48.353Z,0.70
2023-02-18T08:23:16.717Z,0.70
2023-02-18T08:25:49.838Z,1.10
2023-02-18T08:28:19.162Z,1.20
2023-02-18T08:30:47.710Z,0.98
2023-02-18T08:33:15.997Z,1.63
2023-02-18T08:35:44.103Z,1.33
2023-02-18T08:38:11.329Z,1.40
2023-02-18T08:40:38.423Z,1.60
2023-02-18T08:43:05.517Z,1.80
2023-02-18T08:45:34.564Z,2.28
2023-02-18T08:48:16.885Z,2.08
2023-02-18T08:50:47.556Z,2.28
2023-02-18T08:53:16.560Z,2.15
2023-02-18T08:55:44.183Z,2.25
2023-02-18T08:58:12.099Z,2.60
2023-02-18T09:00:43.055Z,2.17
2023-02-18T09:03:14.225Z,2.35
2023-02-18T09:05:41.465Z,2.47
2023-02-18T09:08:08.554Z,2.05
2023-02-18T09:10:35.665Z,2.30
2023-02-18T09:13:02.708Z,2.10
2023-02-18T09:15:30.058Z,2.20
2023-02-18T09:17:57.081Z,2.38
2023-02-18T09:20:24.270Z,3.03
2023-02-18T09:22:51.308Z,3.50
2023-02-18T09:25:18.403Z,2.78
2023-02-18T09:27:45.594Z,2.70
2023-02-18T09:30:13.419Z,2.70
2023-02-18T09:32:40.565Z,2.60
2023-02-18T09:35:08.172Z,2.28
2023-02-18T09:37:35.268Z,3.10
2023-02-18T09:40:02.402Z,2.83
2023-02-18T09:42:33.029Z,3.03
2023-02-18T09:45:03.752Z,3.30
2023-02-18T09:47:38.062Z,2.70
2023-02-18T09:50:18.660Z,2.78
2023-02-18T09:52:46.012Z,2.50
2023-02-18T09:55:18.337Z,2.72
2023-02-18T09:57:52.415Z,2.60
2023-02-18T10:00:25.287Z,2.30
2023-02-18T10:02:55.275Z,2.78
2023-02-18T10:05:24.261Z,2.72
2023-02-18T10:07:56.292Z,2.63
2023-02-18T10:10:41.944Z,2.70
2023-02-18T10:13:18.969Z,2.55
2023-02-18T10:15:47.728Z,2.33
2023-02-18T10:18:40.269Z,2.25
2023-02-18T10:21:11.638Z,2.47
2023-02-18T10:23:54.029Z,2.45
2023-02-18T10:26:22.110Z,2.33
2023-02-18T10:28:52.756Z,2.58
2023-02-18T10:31:28.851Z,2.70
2023-02-18T10:34:00.627Z,2.13
2023-02-18T10:37:17.213Z,2.15
2023-02-18T10:39:58.049Z,2.70
2023-02-18T10:42:28.708Z,2.78
2023-02-18T10:45:19.878Z,3.28
2023-02-18T10:48:06.425Z,2.70
2023-02-18T10:50:40.350Z,3.30
2023-02-18T10:53:26.181Z,3.15
2023-02-18T10:55:56.764Z,3.50
2023-02-18T10:58:33.150Z,3.25
2023-02-18T11:01:08.942Z,3.38
2023-02-18T11:03:51.597Z,3.17
2023-02-18T11:06:21.678Z,3.40
2023-02-18T11:08:49.775Z,3.15
2023-02-18T11:11:25.806Z,4.03
2023-02-18T11:13:55.112Z,3.53
2023-02-18T11:16:24.133Z,3.60
2023-02-18T11:18:51.223Z,3.90
2023-02-18T11:21:29.180Z,4.22
2023-02-18T11:23:58.123Z,4.20
2023-02-18T11:26:30.907Z,4.45
2023-02-18T11:29:14.849Z,4.45
2023-02-18T11:31:47.990Z,4.55
2023-02-18T11:34:24.628Z,4.07
2023-02-18T11:36:52.891Z,4.43
2023-02-18T11:39:29.513Z,4.55
2023-02-18T11:42:01.410Z,4.43
2023-02-18T11:44:33.642Z,4.80
2023-02-18T11:47:05.837Z,5.10
2023-02-18T11:49:35.665Z,5.25
2023-02-18T11:52:05.572Z,5.15
2023-02-18T11:54:32.844Z,5.47
2023-02-18T11:57:11.954Z,5.97
2023-02-18T11:59:41.055Z,4.90
2023-02-18T12:02:10.933Z,4.80
2023-02-18T12:04:47.174Z,5.30
2023-02-18T12:07:25.401Z,5.00
2023-02-18T12:09:59.405Z,5.15
2023-02-18T12:13:12.608Z,5.22
2023-02-18T12:15:55.237Z,5.20
2023-02-18T12:18:31.693Z,5.32
2023-02-18T12:21:04.263Z,4.80
2023-02-18T12:23:49.194Z,5.28
2023-02-18T12:26:38.032Z,5.07
2023-02-18T12:29:14.129Z,6.03
2023-02-18T12:32:20.764Z,5.68
2023-02-18T12:35:02.771Z,6.35
2023-02-18T12:38:05.480Z,6.65
2023-02-18T12:41:10.435Z,6.93
2023-02-18T12:43:52.471Z,7.60
2023-02-18T12:46:31.483Z,7.50
2023-02-18T12:49:16.390Z,6.35
2023-02-18T12:51:52.566Z,6.80
2023-02-18T12:54:46.510Z,6.20
2023-02-18T12:57:53.294Z,5.67
2023-02-18T13:00:49.378Z,5.05
2023-02-18T13:03:31.302Z,5.38
2023-02-18T13:06:08.618Z,5.07
2023-02-18T13:08:45.030Z,5.22
2023-02-18T13:11:45.759Z,4.75
2023-02-18T13:14:29.869Z,4.55
2023-02-18T13:17:00.537Z,5.47
2023-02-18T13:19:48.344Z,6.18
2023-02-18T13:22:18.526Z,6.43
2023-02-18T13:24:48.465Z,6.60
2023-02-18T13:27:41.184Z,6.20
2023-02-18T13:30:36.753Z,6.53
2023-02-18T13:33:37.613Z,5.70
2023-02-18T13:36:08.763Z,5.60
2023-02-18T13:39:00.923Z,6.47
2023-02-18T13:41:28.218Z,6.43
2023-02-18T13:43:55.409Z,6.30
2023-02-18T13:46:24.163Z,5.90
2023-02-18T13:49:14.329Z,6.22
2023-02-18T13:51:50.652Z,6.05
2023-02-18T13:54:32.084Z,6.32
2023-02-18T13:57:07.308Z,6.63
2023-02-18T13:59:45.457Z,6.80
2023-02-18T14:02:21.633Z,6.03
2023-02-18T14:04:54.693Z,5.90
2023-02-18T14:07:30.647Z,5.65
2023-02-18T14:10:00.297Z,5.90
2023-02-18T14:13:00.900Z,6.22
2023-02-18T14:15:28.200Z,6.05
2023-02-18T14:18:24.771Z,6.15
2023-02-18T14:20:52.878Z,5.47
2023-02-18T14:23:23.057Z,5.78
2023-02-18T14:25:58.060Z,7.00
2023-02-18T14:28:39.310Z,7.40
2023-02-18T14:31:12.872Z,6.88
2023-02-18T14:33:46.802Z,6.30
2023-02-18T14:36:16.719Z,6.38
2023-02-18T14:38:59.913Z,6.50
2023-02-18T14:41:45.913Z,7.28
2023-02-18T14:44:40.495Z,6.43
2023-02-18T14:47:38.441Z,6.20
2023-02-18T14:50:13.300Z,5.30
2023-02-18T14:52:48.772Z,5.25
2023-02-18T14:55:31.003Z,4.68
2023-02-18T14:58:13.814Z,5.68
2023-02-18T15:00:43.277Z,5.07
2023-02-18T15:03:20.412Z,4.60
2023-02-18T15:05:48.217Z,4.80
2023-02-18T15:08:20.671Z,4.90
2023-02-18T15:11:14.507Z,4.88
2023-02-18T15:13:44.416Z,4.78
2023-02-18T15:16:30.192Z,4.90
2023-02-18T15:19:13.631Z,4.45
2023-02-18T15:21:45.195Z,4.80
2023-02-18T15:24:26.274Z,4.90
2023-02-18T15:26:56.072Z,4.90
2023-02-18T15:29:26.167Z,4.38
2023-02-18T15:31:55.314Z,5.18
2023-02-18T15:34:34.191Z,6.70
2023-02-18T15:37:02.773Z,6.03
2023-02-18T15:39:30.362Z,5.63
2023-02-18T15:42:09.434Z,6.07
2023-02-18T15:44:37.779Z,6.47
2023-02-18T15:47:09.319Z,6.38
2023-02-18T15:49:38.762Z,6.18
2023-02-18T15:52:06.851Z,6.68
2023-02-18T15:54:34.030Z,6.18
2023-02-18T15:57:03.546Z,6.10
2023-02-18T15:59:34.720Z,6.95
2023-02-18T16:02:16.644Z,6.60
2023-02-18T16:04:52.482Z,6.40
2023-02-18T16:07:22.637Z,6.22
2023-02-18T16:09:50.085Z,7.22
2023-02-18T16:12:31.766Z,6.20
2023-02-18T16:15:00.434Z,6.57
2023-02-18T16:17:29.492Z,6.82
2023-02-18T16:20:05.345Z,6.55
2023-02-18T16:22:34.873Z,5.90
2023-02-18T16:25:19.334Z,6.50
2023-02-18T16:27:52.212Z,5.80
2023-02-18T16:30:21.234Z,5.60
2023-02-18T16:32:48.491Z,6.60
2023-02-18T16:35:16.102Z,6.20
2023-02-18T16:37:46.118Z,6.05
2023-02-18T16:40:38.428Z,5.90
2023-02-18T16:43:23.736Z,6.38
2023-02-18T16:45:53.885Z,5.93
2023-02-18T16:48:28.811Z,6.57
2023-02-18T16:50:59.184Z,7.10
2023-02-18T16:53:26.235Z,6.25
2023-02-18T16:55:53.405Z,6.18
2023-02-18T16:58:20.698Z,5.82
2023-02-18T17:00:51.239Z,6.55
2023-02-18T17:03:19.019Z,6.53
2023-02-18T17:05:46.253Z,6.68
2023-02-18T17:08:16.340Z,5.93
2023-02-18T17:10:43.503Z,5.70
2023-02-18T17:13:14.959Z,5.55
2023-02-18T17:15:43.952Z,8.52
2023-02-18T17:18:11.582Z,6.65
2023-02-18T17:20:39.492Z,5.68
2023-02-18T17:23:09.839Z,6.32
2023-02-18T17:25:40.382Z,5.88
2023-02-18T17:28:07.848Z,5.68
2023-02-18T17:30:41.836Z,6.43
2023-02-18T17:33:15.271Z,6.72
2023-02-18T17:35:42.576Z,6.90
2023-02-18T17:38:18.165Z,6.65
2023-02-18T17:40:45.966Z,6.88
2023-02-18T17:43:15.603Z,7.25
2023-02-18T17:45:55.080Z,7.95
2023-02-18T17:48:22.486Z,8.27
2023-02-18T17:50:49.634Z,8.43
2023-02-18T17:53:18.230Z,7.80
2023-02-18T17:55:47.242Z,8.75
2023-02-18T17:58:15.456Z,8.43
2023-02-18T18:00:47.143Z,8.63
2023-02-18T18:03:14.919Z,8.40
2023-02-18T18:05:44.838Z,8.30
2023-02-18T18:08:13.276Z,8.65
2023-02-18T18:10:47.620Z,8.38
2023-02-18T18:13:24.912Z,8.25
2023-02-18T18:15:52.519Z,7.30
2023-02-18T18:18:20.874Z,8.25
2023-02-18T18:20:58.922Z,7.30
2023-02-18T18:23:26.270Z,7.10
2023-02-18T18:25:56.320Z,6.85
2023-02-18T18:28:24.092Z,6.88
2023-02-18T18:30:56.348Z,6.55
2023-02-18T18:33:34.684Z,6.53
2023-02-18T18:36:02.597Z,7.55
2023-02-18T18:38:30.186Z,8.45
2023-02-18T18:40:57.888Z,6.75
2023-02-18T18:43:32.898Z,7.53
2023-02-18T18:46:00.838Z,7.97
2023-02-18T18:48:28.259Z,7.70
2023-02-18T18:50:55.631Z,8.18
2023-02-18T18:53:30.761Z,7.80
2023-02-18T18:56:02.676Z,8.35
2023-02-18T18:58:30.380Z,8.98
2023-02-18T19:01:03.795Z,8.55
2023-02-18T19:03:31.513Z,7.93
2023-02-18T19:05:59.741Z,7.95
2023-02-18T19:08:32.556Z,7.60
2023-02-18T19:10:59.718Z,7.63
2023-02-18T19:13:29.964Z,7.68
2023-02-18T19:16:20.775Z,7.35
2023-02-18T19:18:48.421Z,6.88
2023-02-18T19:21:17.023Z,6.85
2023-02-18T19:23:44.263Z,6.53
2023-02-18T19:26:12.896Z,7.00
2023-02-18T19:28:41.545Z,7.53
2023-02-18T19:31:12.192Z,6.40
2023-02-18T19:33:39.742Z,6.45
2023-02-18T19:36:11.283Z,7.45
2023-02-18T19:38:39.088Z,7.55
2023-02-18T19:41:08.704Z,6.95
2023-02-18T19:43:36.132Z,6.93
2023-02-18T19:46:09.480Z,7.07
2023-02-18T19:48:37.100Z,9.02
2023-02-18T19:51:06.507Z,7.30
2023-02-18T19:53:33.691Z,7.75
2023-02-18T19:56:04.142Z,9.90
2023-02-18T19:58:31.239Z,7.70
2023-02-18T20:00:58.412Z,6.88
2023-02-18T20:03:25.605Z,7.18
2023-02-18T20:05:52.759Z,7.13
2023-02-18T20:08:19.864Z,7.03
2023-02-18T20:10:46.998Z,6.78
2023-02-18T20:13:14.193Z,8.25
2023-02-18T20:15:42.076Z,7.32
2023-02-18T20:18:09.344Z,7.72
2023-02-18T20:20:36.529Z,7.03
2023-02-18T20:23:03.837Z,7.10
2023-02-18T20:25:31.259Z,8.13
2023-02-18T20:28:01.514Z,7.78
2023-02-18T20:30:29.350Z,7.28
2023-02-18T20:32:56.656Z,7.32
2023-02-18T20:35:24.182Z,8.02
2023-02-18T20:37:52.355Z,8.98
2023-02-18T20:40:19.700Z,9.02
2023-02-18T20:42:47.078Z,8.23
2023-02-18T20:45:15.802Z,8.88
2023-02-18T20:47:43.026Z,9.93
2023-02-18T20:50:10.361Z,8.82
2023-02-18T20:52:37.583Z,8.05
2023-02-18T20:55:05.101Z,8.85
2023-02-18T20:57:32.293Z,8.45
2023-02-18T20:59:59.913Z,8.40
2023-02-18T21:02:28.387Z,9.10
2023-02-18T21:04:55.505Z,9.23
2023-02-18T21:07:22.997Z,10.60
2023-02-18T21:09:50.316Z,8.90
2023-02-18T21:12:17.529Z,11.60
2023-02-18T21:14:44.869Z,10.68
2023-02-18T21:17:12.058Z,10.18
2023-02-18T21:19:39.165Z,8.75
2023-02-18T21:22:06.311Z,8.68
2023-02-18T21:24:33.578Z,8.27
2023-02-18T21:27:00.686Z,5.90
2023-02-18T21:29:27.844Z,5.20
2023-02-18T21:31:55.268Z,5.00
2023-02-18T21:34:23.011Z,6.05
2023-02-18T21:36:50.206Z,4.75
2023-02-18T21:39:17.332Z,4.90
2023-02-18T21:41:44.558Z,4.15
2023-02-18T21:44:11.800Z,4.00
2023-02-18T21:46:40.082Z,3.25
2023-02-18T21:49:12.729Z,3.70
2023-02-18T21:51:57.914Z,3.60
2023-02-18T21:54:31.808Z,3.20
2023-02-18T21:57:00.517Z,3.83
2023-02-18T21:59:29.886Z,3.38
2023-02-18T22:02:00.519Z,3.78
2023-02-18T22:04:32.637Z,3.63
2023-02-18T22:07:00.275Z,3.95
2023-02-18T22:09:27.863Z,4.22
2023-02-18T22:11:55.574Z,4.63
2023-02-18T22:14:22.810Z,5.20
2023-02-18T22:16:50.140Z,5.10
2023-02-18T22:19:17.362Z,4.90
2023-02-18T22:21:44.576Z,5.00
2023-02-18T22:24:14.397Z,5.28
2023-02-18T22:26:44.117Z,5.50
2023-02-18T22:29:16.596Z,5.35
2023-02-18T22:31:43.951Z,5.82
2023-02-18T22:34:11.727Z,5.28
2023-02-18T22:36:39.374Z,5.07
2023-02-18T22:39:07.644Z,5.32
2023-02-18T22:41:35.720Z,5.60
2023-02-18T22:44:05.653Z,5.85
2023-02-18T22:46:34.561Z,5.85
2023-02-18T22:49:04.436Z,5.55
2023-02-18T22:51:38.154Z,5.63
2023-02-18T22:54:08.080Z,5.68
2023-02-18T22:56:35.367Z,5.85
2023-02-18T22:59:02.781Z,5.13
2023-02-18T23:01:32.875Z,5.55
2023-02-18T23:04:09.164Z,5.00
2023-02-18T23:06:37.380Z,4.97
2023-02-18T23:09:06.324Z,4.70
2023-02-18T23:11:33.540Z,5.68
2023-02-18T23:14:18.965Z,6.78
2023-02-18T23:17:15.086Z,5.65
2023-02-18T23:19:45.135Z,7.70
2023-02-18T23:22:14.686Z,7.32
2023-02-18T23:24:44.117Z,8.35
2023-02-18T23:27:13.732Z,11.13
2023-02-18T23:29:41.073Z,8.80
2023-02-18T23:32:09.528Z,8.30
2023-02-18T23:34:38.269Z,7.55
2023-02-18T23:37:05.688Z,8.82
2023-02-18T23:39:33.543Z,8.65
2023-02-18T23:42:00.771Z,8.85
2023-02-18T23:44:28.559Z,9.57
2023-02-18T23:46:55.873Z,9.57
2023-02-18T23:49:26.959Z,9.70
2023-02-18T23:51:57.321Z,11.73
2023-02-18T23:54:25.125Z,9.98
2023-02-18T23:56:52.246Z,10.35
2023-02-18T23:59:19.735Z,9.30
